createdAt,value
2019-02-22T00:00:45.051Z,7.90
2019-02-22T00:03:12.190Z,7.80
2019-02-22T00:05:39.251Z,7.80
2019-02-22T00:08:07.069Z,7.80
2019-02-22T00:10:34.551Z,7.80
2019-02-22T00:13:01.690Z,7.80
2019-02-22T00:15:28.792Z,7.70
2019-02-22T00:17:55.931Z,7.70
2019-02-22T00:20:22.991Z,7.70
2019-02-22T00:22:50.091Z,7.70
2019-02-22T00:25:17.336Z,7.70
2019-02-22T00:27:44.512Z,7.70
2019-02-22T00:30:11.638Z,7.60
2019-02-22T00:32:39.071Z,7.60
2019-02-22T00:35:06.483Z,7.60
2019-02-22T00:37:33.705Z,7.60
2019-02-22T00:40:00.851Z,7.50
2019-02-22T00:42:28.010Z,7.50
2019-02-22T00:44:55.090Z,7.50
2019-02-22T00:47:22.275Z,7.50
2019-02-22T00:49:49.411Z,7.50
2019-02-22T00:52:16.490Z,7.40
2019-02-22T00:54:43.591Z,7.40
2019-02-22T00:57:10.750Z,7.40
2019-02-22T00:59:37.870Z,7.40
2019-02-22T01:02:04.925Z,7.50
2019-02-22T01:04:32.071Z,7.50
2019-02-22T01:06:59.270Z,7.40
2019-02-22T01:09:26.315Z,7.40
2019-02-22T01:11:53.410Z,7.40
2019-02-22T01:14:22.271Z,7.40
2019-02-22T01:16:49.451Z,7.40
2019-02-22T01:19:16.537Z,7.50
2019-02-22T01:21:43.611Z,7.50
2019-02-22T01:24:11.331Z,7.50
2019-02-22T01:26:38.451Z,7.50
2019-02-22T01:29:05.570Z,7.50
2019-02-22T01:31:32.678Z,7.50
2019-02-22T01:33:59.813Z,7.50
2019-02-22T01:36:27.070Z,7.60
2019-02-22T01:38:54.133Z,7.60
2019-02-22T01:41:21.365Z,7.60
2019-02-22T01:43:48.550Z,7.60
2019-02-22T01:46:15.711Z,7.60
2019-02-22T01:48:42.846Z,7.60
2019-02-22T01:51:10.074Z,7.60
2019-02-22T01:53:37.154Z,7.70
2019-02-22T01:56:04.471Z,7.70
2019-02-22T01:58:31.599Z,7.80
2019-02-22T02:00:58.771Z,7.80
2019-02-22T02:03:25.950Z,7.90
2019-02-22T02:05:53.130Z,7.90
2019-02-22T02:08:20.871Z,8.00
2019-02-22T02:10:54.060Z,7.90
2019-02-22T02:13:16.991Z,8.00
2019-02-22T02:15:44.071Z,7.90
2019-02-22T02:18:11.190Z,7.90
2019-02-22T02:20:38.518Z,7.90
2019-02-22T02:23:05.902Z,7.90
2019-02-22T02:25:32.990Z,7.80
2019-02-22T02:28:00.129Z,7.80
2019-02-22T02:30:27.189Z,7.80
2019-02-22T02:32:54.368Z,7.70
2019-02-22T02:35:21.547Z,7.70
2019-02-22T02:37:48.785Z,7.60
2019-02-22T02:40:15.861Z,7.60
2019-02-22T02:42:42.924Z,7.60
2019-02-22T02:45:10.005Z,7.60
2019-02-22T02:47:37.107Z,7.60
2019-02-22T02:50:06.585Z,7.60
2019-02-22T02:52:33.721Z,7.60
2019-02-22T02:55:00.849Z,7.50
2019-02-22T02:57:27.994Z,7.50
2019-02-22T02:59:55.143Z,7.40
2019-02-22T03:02:24.102Z,7.40
2019-02-22T03:04:51.269Z,7.40
2019-02-22T03:07:37.147Z,7.30
2019-02-22T03:10:06.166Z,7.30
2019-02-22T03:12:33.195Z,7.30
2019-02-22T03:15:00.366Z,7.30
2019-02-22T03:17:27.527Z,7.30
2019-02-22T03:19:54.845Z,7.30
2019-02-22T03:22:21.989Z,7.30
2019-02-22T03:24:49.031Z,7.30
2019-02-22T03:27:16.103Z,7.30
2019-02-22T03:29:43.168Z,7.30
2019-02-22T03:32:10.412Z,7.30
2019-02-22T03:34:37.628Z,7.30
2019-02-22T03:37:04.755Z,7.30
2019-02-22T03:39:31.804Z,7.30
2019-02-22T03:41:58.948Z,7.20
2019-02-22T03:44:25.970Z,7.20
2019-02-22T03:46:53.164Z,7.20
2019-02-22T03:49:20.310Z,7.20
2019-02-22T03:51:47.435Z,7.20
2019-02-22T03:54:14.506Z,7.10
2019-02-22T03:56:41.601Z,7.10
2019-02-22T03:59:08.675Z,7.10
2019-02-22T04:01:35.754Z,7.10
2019-02-22T04:04:02.845Z,7.10
2019-02-22T04:06:30.062Z,7.10
2019-02-22T04:08:57.206Z,7.10
2019-02-22T04:11:24.649Z,7.10
2019-02-22T04:13:51.745Z,7.00
2019-02-22T04:16:18.886Z,7.00
2019-02-22T04:18:46.007Z,7.00
2019-02-22T04:21:13.125Z,7.00
2019-02-22T04:23:40.195Z,7.00
2019-02-22T04:26:07.307Z,7.00
2019-02-22T04:28:34.453Z,7.00
2019-02-22T04:31:01.586Z,7.00
2019-02-22T04:33:28.646Z,7.00
2019-02-22T04:35:55.826Z,7.00
2019-02-22T04:38:22.948Z,7.00
2019-02-22T04:40:50.068Z,7.00
2019-02-22T04:43:17.200Z,7.00
2019-02-22T04:45:44.766Z,7.00
2019-02-22T04:48:11.942Z,7.00
2019-02-22T04:50:39.086Z,7.00
2019-02-22T04:53:06.627Z,7.00
2019-02-22T04:55:33.808Z,7.00
2019-02-22T04:58:00.967Z,7.00
2019-02-22T05:00:28.126Z,7.00
2019-02-22T05:02:55.369Z,7.00
2019-02-22T05:05:22.488Z,7.00
2019-02-22T05:07:49.686Z,7.10
2019-02-22T05:10:16.964Z,6.90
2019-02-22T05:12:44.185Z,6.90
2019-02-22T05:15:12.814Z,6.90
2019-02-22T05:17:40.267Z,6.90
2019-02-22T05:20:07.606Z,6.90
2019-02-22T05:22:35.054Z,6.90
2019-02-22T05:25:02.627Z,7.00
2019-02-22T05:27:29.814Z,7.00
2019-02-22T05:29:56.933Z,7.00
2019-02-22T05:32:24.113Z,7.00
2019-02-22T05:34:51.187Z,7.00
2019-02-22T05:37:18.365Z,7.00
2019-02-22T05:39:45.487Z,7.00
2019-02-22T05:42:22.493Z,7.00
2019-02-22T05:44:41.835Z,7.00
2019-02-22T05:47:08.970Z,7.00
2019-02-22T05:49:36.240Z,7.00
2019-02-22T05:52:03.347Z,7.00
2019-02-22T05:54:30.506Z,7.10
2019-02-22T05:56:57.626Z,7.10
2019-02-22T05:59:24.765Z,7.10
2019-02-22T06:01:51.927Z,7.10
2019-02-22T06:04:19.151Z,7.10
2019-02-22T06:06:46.245Z,7.10
2019-02-22T06:09:13.346Z,7.10
2019-02-22T06:11:40.466Z,7.10
2019-02-22T06:14:07.567Z,7.10
2019-02-22T06:16:36.505Z,7.10
2019-02-22T06:19:03.625Z,7.10
2019-02-22T06:21:30.750Z,7.10
2019-02-22T06:23:57.849Z,7.10
2019-02-22T06:26:24.985Z,7.10
2019-02-22T06:29:05.625Z,7.10
2019-02-22T06:31:32.748Z,7.10
2019-02-22T06:33:59.861Z,7.10
2019-02-22T06:36:26.985Z,7.10
2019-02-22T06:38:54.102Z,7.10
2019-02-22T06:41:21.475Z,7.20
2019-02-22T06:43:48.625Z,7.20
2019-02-22T06:46:15.826Z,7.20
2019-02-22T06:48:42.934Z,7.20
2019-02-22T06:51:10.048Z,7.20
2019-02-22T06:53:37.186Z,7.20
2019-02-22T06:56:04.268Z,7.20
2019-02-22T06:58:31.347Z,7.30
2019-02-22T07:00:58.446Z,7.30
2019-02-22T07:03:25.626Z,7.30
2019-02-22T07:05:52.727Z,7.30
2019-02-22T07:08:19.905Z,7.30
2019-02-22T07:10:58.165Z,7.30
2019-02-22T07:13:25.327Z,7.30
2019-02-22T07:15:52.474Z,7.30
2019-02-22T07:18:19.686Z,7.30
2019-02-22T07:20:47.086Z,7.40
2019-02-22T07:23:14.309Z,7.30
2019-02-22T07:25:41.412Z,7.30
2019-02-22T07:28:08.610Z,7.40
2019-02-22T07:30:35.830Z,7.40
2019-02-22T07:33:03.007Z,7.40
2019-02-22T07:35:30.208Z,7.50
2019-02-22T07:37:57.450Z,7.50
2019-02-22T07:40:24.567Z,7.50
2019-02-22T07:42:51.667Z,7.60
2019-02-22T07:45:18.788Z,7.60
2019-02-22T07:47:46.135Z,7.60
2019-02-22T07:50:13.255Z,7.60
2019-02-22T07:52:40.494Z,7.60
2019-02-22T07:55:09.201Z,7.70
2019-02-22T07:57:36.409Z,7.70
2019-02-22T08:00:08.912Z,7.70
2019-02-22T08:02:36.092Z,7.70
2019-02-22T08:05:03.848Z,7.70
2019-02-22T08:07:30.957Z,7.80
2019-02-22T08:09:58.109Z,7.80
2019-02-22T08:12:25.219Z,7.80
2019-02-22T08:14:52.420Z,7.90
2019-02-22T08:17:19.581Z,7.90
2019-02-22T08:19:46.840Z,7.90
2019-02-22T08:22:13.940Z,7.90
2019-02-22T08:24:41.276Z,8.00
2019-02-22T08:27:08.440Z,8.00
2019-02-22T08:29:38.172Z,8.10
2019-02-22T08:32:04.593Z,8.10
2019-02-22T08:34:31.740Z,8.10
2019-02-22T08:36:58.827Z,8.20
2019-02-22T08:39:26.028Z,8.20
2019-02-22T08:41:53.120Z,8.30
2019-02-22T08:44:20.280Z,8.40
2019-02-22T08:46:47.422Z,8.50
2019-02-22T08:49:14.579Z,8.60
2019-02-22T08:51:41.668Z,8.60
2019-02-22T08:54:08.963Z,8.70
2019-02-22T08:56:36.100Z,8.70
2019-02-22T08:59:03.239Z,8.70
2019-02-22T09:01:30.320Z,8.80
2019-02-22T09:03:57.536Z,8.80
2019-02-22T09:06:24.600Z,8.80
2019-02-22T09:08:51.759Z,8.90
2019-02-22T09:11:18.935Z,8.90
2019-02-22T09:13:46.057Z,8.90
2019-02-22T09:16:13.212Z,8.90
2019-02-22T09:18:40.312Z,9.00
2019-02-22T09:21:07.432Z,9.10
2019-02-22T09:23:34.552Z,9.10
2019-02-22T09:26:01.671Z,9.20
2019-02-22T09:28:28.770Z,9.20
2019-02-22T09:30:55.911Z,9.20
2019-02-22T09:33:22.970Z,9.30
2019-02-22T09:35:50.111Z,9.30
2019-02-22T09:38:17.173Z,9.40
2019-02-22T09:40:44.355Z,9.40
2019-02-22T09:43:11.510Z,9.40
2019-02-22T09:45:38.612Z,9.40
2019-02-22T09:48:05.751Z,9.40
2019-02-22T09:50:32.831Z,9.40
2019-02-22T09:52:59.991Z,9.40
2019-02-22T09:55:27.129Z,9.40
2019-02-22T09:57:54.231Z,9.50
2019-02-22T10:00:21.370Z,9.70
2019-02-22T10:02:48.667Z,9.90
2019-02-22T10:05:15.727Z,10.00
2019-02-22T10:07:42.909Z,10.10
2019-02-22T10:10:10.793Z,10.10
2019-02-22T10:12:37.867Z,10.20
2019-02-22T10:15:08.018Z,10.10
2019-02-22T10:17:35.088Z,10.00
2019-02-22T10:20:02.869Z,10.10
2019-02-22T10:22:30.007Z,10.20
2019-02-22T10:24:57.107Z,10.40
2019-02-22T10:27:24.170Z,10.40
2019-02-22T10:29:51.509Z,10.50
2019-02-22T10:32:18.987Z,10.50
2019-02-22T10:34:46.127Z,10.40
2019-02-22T10:37:13.266Z,10.30
2019-02-22T10:39:40.447Z,10.40
2019-02-22T10:42:07.628Z,10.40
2019-02-22T10:44:34.768Z,10.40
2019-02-22T10:47:01.829Z,10.40
2019-02-22T10:49:29.027Z,10.40
2019-02-22T10:51:56.167Z,10.50
2019-02-22T10:54:23.268Z,10.60
2019-02-22T10:56:50.428Z,10.60
2019-02-22T10:59:17.506Z,10.80
2019-02-22T11:01:44.807Z,10.80
2019-02-22T11:04:11.887Z,10.80
2019-02-22T11:06:38.972Z,10.90
2019-02-22T11:09:06.280Z,10.90
2019-02-22T11:11:33.999Z,10.80
2019-02-22T11:14:01.052Z,10.70
2019-02-22T11:16:28.172Z,10.50
2019-02-22T11:18:55.295Z,10.40
2019-02-22T11:21:22.404Z,10.50
2019-02-22T11:23:49.552Z,10.50
2019-02-22T11:26:16.684Z,10.60
2019-02-22T11:28:43.808Z,10.60
2019-02-22T11:31:10.969Z,10.40
2019-02-22T11:33:38.097Z,10.40
2019-02-22T11:36:05.218Z,10.40
2019-02-22T11:38:32.304Z,10.50
2019-02-22T11:40:59.404Z,10.60
2019-02-22T11:43:26.564Z,11.00
2019-02-22T11:45:53.664Z,10.90
2019-02-22T11:48:20.763Z,11.00
2019-02-22T11:50:47.884Z,11.00
2019-02-22T11:53:14.991Z,11.20
2019-02-22T11:55:42.085Z,11.20
2019-02-22T11:58:09.207Z,11.10
2019-02-22T12:00:36.404Z,11.10
2019-02-22T12:03:21.016Z,11.20
2019-02-22T12:05:33.004Z,11.20
2019-02-22T12:08:00.086Z,11.00
2019-02-22T12:10:27.367Z,10.80
2019-02-22T12:12:54.509Z,10.70
2019-02-22T12:15:21.548Z,10.70
2019-02-22T12:17:48.747Z,10.80
2019-02-22T12:20:15.948Z,10.80
2019-02-22T12:22:43.107Z,10.80
2019-02-22T12:25:12.026Z,10.80
2019-02-22T12:27:39.148Z,10.70
2019-02-22T12:30:14.868Z,10.80
2019-02-22T12:32:42.086Z,10.70
2019-02-22T12:35:09.628Z,10.60
2019-02-22T12:37:37.086Z,10.60
2019-02-22T12:40:07.886Z,10.50
2019-02-22T12:42:35.105Z,10.60
2019-02-22T12:45:03.620Z,10.60
2019-02-22T12:47:30.746Z,10.60
2019-02-22T12:49:57.886Z,10.50
2019-02-22T12:52:26.147Z,10.50
2019-02-22T12:54:53.271Z,10.40
2019-02-22T12:57:21.509Z,10.40
2019-02-22T12:59:48.539Z,10.40
2019-02-22T13:02:15.671Z,10.30
2019-02-22T13:04:42.831Z,10.30
2019-02-22T13:07:09.910Z,10.30
2019-02-22T13:09:37.244Z,10.30
2019-02-22T13:12:13.561Z,10.40
2019-02-22T13:14:33.549Z,10.30
2019-02-22T13:17:01.031Z,10.30
2019-02-22T13:19:28.237Z,10.40
2019-02-22T13:21:55.337Z,10.50
2019-02-22T13:24:22.531Z,10.70
2019-02-22T13:26:49.751Z,10.80
2019-02-22T13:29:16.877Z,10.90
2019-02-22T13:31:44.049Z,10.90
2019-02-22T13:34:11.480Z,10.90
2019-02-22T13:36:38.580Z,11.00
2019-02-22T13:39:06.160Z,10.80
2019-02-22T13:41:33.156Z,10.70
2019-02-22T13:44:00.243Z,10.60
2019-02-22T13:46:27.365Z,10.40
2019-02-22T13:48:54.565Z,10.00
2019-02-22T13:51:21.738Z,9.90
2019-02-22T13:53:48.866Z,9.70
2019-02-22T13:56:15.955Z,9.50
2019-02-22T13:58:43.129Z,9.30
2019-02-22T14:01:10.208Z,9.10
2019-02-22T14:03:37.490Z,8.90
2019-02-22T14:06:04.690Z,8.80
2019-02-22T14:08:32.414Z,8.70
2019-02-22T14:10:59.554Z,8.70
2019-02-22T14:13:26.615Z,8.70
2019-02-22T14:15:53.873Z,8.60
2019-02-22T14:18:20.946Z,8.50
2019-02-22T14:20:48.274Z,8.30
2019-02-22T14:23:15.307Z,8.10
2019-02-22T14:25:42.449Z,8.00
2019-02-22T14:28:11.990Z,7.90
2019-02-22T14:30:38.469Z,7.90
2019-02-22T14:33:05.850Z,7.90
2019-02-22T14:35:32.980Z,7.90
2019-02-22T14:38:00.361Z,8.00
2019-02-22T14:40:27.413Z,8.10
2019-02-22T14:42:54.552Z,8.10
2019-02-22T14:45:21.763Z,8.10
2019-02-22T14:47:48.859Z,8.20
2019-02-22T14:50:17.332Z,8.20
2019-02-22T14:52:44.386Z,8.30
2019-02-22T14:55:11.721Z,8.30
2019-02-22T14:57:38.765Z,8.40
2019-02-22T15:00:16.383Z,8.40
2019-02-22T15:02:43.594Z,8.40
2019-02-22T15:05:12.837Z,8.20
2019-02-22T15:07:40.095Z,8.10
2019-02-22T15:10:08.994Z,8.10
2019-02-22T15:12:36.035Z,8.00
2019-02-22T15:15:30.014Z,7.80
2019-02-22T15:17:58.947Z,7.80
2019-02-22T15:20:26.110Z,7.70
2019-02-22T15:22:53.187Z,7.70
2019-02-22T15:25:20.287Z,7.70
2019-02-22T15:27:47.367Z,7.60
2019-02-22T15:30:16.043Z,7.40
2019-02-22T15:32:43.255Z,7.40
2019-02-22T15:35:15.764Z,7.30
2019-02-22T15:37:43.430Z,7.20
2019-02-22T15:40:12.767Z,7.10
2019-02-22T15:42:40.700Z,7.10
2019-02-22T15:45:14.771Z,7.00
2019-02-22T15:47:41.873Z,6.90
2019-02-22T15:50:16.628Z,6.90
2019-02-22T15:52:45.070Z,6.90
2019-02-22T15:55:14.277Z,6.90
2019-02-22T15:57:41.338Z,6.90
2019-02-22T16:00:33.430Z,6.80
2019-02-22T16:03:00.629Z,6.80
2019-02-22T16:05:29.567Z,6.80
2019-02-22T16:07:57.067Z,6.80
2019-02-22T16:10:24.252Z,6.70
2019-02-22T16:12:51.479Z,6.70
2019-02-22T16:15:18.792Z,6.60
2019-02-22T16:17:45.970Z,6.50
2019-02-22T16:20:13.604Z,6.50
2019-02-22T16:22:40.646Z,6.40
2019-02-22T16:25:18.586Z,6.40
2019-02-22T16:27:36.748Z,6.40
2019-02-22T16:30:10.282Z,6.40
2019-02-22T16:32:37.382Z,6.40
2019-02-22T16:35:05.446Z,6.50
2019-02-22T16:37:32.606Z,6.50
2019-02-22T16:39:59.742Z,6.40
2019-02-22T16:42:26.841Z,6.50
2019-02-22T16:44:54.041Z,6.50
2019-02-22T16:47:21.106Z,6.60
2019-02-22T16:49:48.362Z,6.60
2019-02-22T16:52:15.528Z,6.50
2019-02-22T16:54:42.843Z,6.50
2019-02-22T16:57:10.142Z,6.50
2019-02-22T16:59:37.222Z,6.50
2019-02-22T17:02:04.292Z,6.50
2019-02-22T17:04:31.433Z,6.50
2019-02-22T17:06:58.732Z,6.50
2019-02-22T17:09:25.851Z,6.50
2019-02-22T17:11:53.004Z,6.50
2019-02-22T17:14:20.052Z,6.50
2019-02-22T17:16:47.236Z,6.50
2019-02-22T17:19:14.836Z,6.40
2019-02-22T17:21:45.724Z,6.40
2019-02-22T17:24:12.801Z,6.40
2019-02-22T17:26:39.919Z,6.40
2019-02-22T17:29:06.994Z,6.40
2019-02-22T17:31:34.059Z,6.30
2019-02-22T17:34:01.140Z,6.40
2019-02-22T17:36:28.222Z,6.30
2019-02-22T17:38:55.403Z,6.30
2019-02-22T17:41:22.541Z,6.30
2019-02-22T17:43:49.660Z,6.30
2019-02-22T17:46:16.741Z,6.40
2019-02-22T17:48:43.860Z,6.30
2019-02-22T17:51:11.000Z,6.30
2019-02-22T17:53:38.119Z,6.20
2019-02-22T17:56:05.262Z,6.20
2019-02-22T17:58:33.672Z,6.20
2019-02-22T18:01:20.989Z,6.10
2019-02-22T18:03:48.467Z,6.10
2019-02-22T18:06:15.770Z,6.00
2019-02-22T18:08:42.930Z,6.00
2019-02-22T18:11:10.086Z,6.10
2019-02-22T18:13:37.494Z,6.00
2019-02-22T18:16:04.607Z,5.90
2019-02-22T18:18:31.767Z,5.80
2019-02-22T18:20:58.890Z,5.70
2019-02-22T18:23:25.946Z,5.60
2019-02-22T18:25:53.071Z,5.60
2019-02-22T18:28:20.247Z,5.60
2019-02-22T18:30:47.367Z,5.50
2019-02-22T18:33:14.427Z,5.50
2019-02-22T18:35:41.647Z,5.50
2019-02-22T18:38:08.744Z,5.50
2019-02-22T18:40:35.867Z,5.40
2019-02-22T18:43:02.992Z,5.30
2019-02-22T18:45:30.148Z,5.20
2019-02-22T18:47:57.247Z,5.10
2019-02-22T18:50:24.346Z,5.00
2019-02-22T18:52:51.466Z,5.00
2019-02-22T18:55:18.606Z,4.90
2019-02-22T18:57:45.730Z,4.90
2019-02-22T19:00:19.047Z,4.90
2019-02-22T19:02:46.227Z,4.80
2019-02-22T19:05:13.562Z,4.80
2019-02-22T19:07:40.902Z,4.80
2019-02-22T19:10:12.637Z,4.70
2019-02-22T19:12:39.732Z,4.70
2019-02-22T19:15:12.360Z,4.70
2019-02-22T19:17:39.621Z,4.60
2019-02-22T19:20:13.405Z,4.50
2019-02-22T19:22:40.608Z,4.50
2019-02-22T19:25:08.383Z,4.40
2019-02-22T19:27:35.599Z,4.40
2019-02-22T19:30:06.379Z,4.30
2019-02-22T19:32:33.541Z,4.20
2019-02-22T19:35:00.678Z,4.20
2019-02-22T19:37:27.839Z,4.10
2019-02-22T19:39:54.919Z,4.10
2019-02-22T19:42:22.093Z,4.10
2019-02-22T19:44:49.302Z,4.20
2019-02-22T19:47:16.399Z,4.20
2019-02-22T19:49:43.699Z,4.20
2019-02-22T19:52:10.859Z,4.20
2019-02-22T19:54:38.179Z,4.10
2019-02-22T19:57:05.379Z,4.00
2019-02-22T19:59:32.478Z,3.90
2019-02-22T20:01:59.659Z,3.90
2019-02-22T20:04:26.765Z,3.80
2019-02-22T20:06:53.858Z,3.80
2019-02-22T20:09:21.279Z,3.70
2019-02-22T20:11:48.791Z,3.70
2019-02-22T20:14:16.120Z,3.70
2019-02-22T20:16:43.299Z,3.60
2019-02-22T20:19:10.398Z,3.40
2019-02-22T20:21:37.520Z,3.40
2019-02-22T20:24:04.732Z,3.30
2019-02-22T20:26:32.039Z,3.20
2019-02-22T20:28:59.199Z,3.20
2019-02-22T20:31:26.327Z,3.10
2019-02-22T20:33:53.579Z,3.10
2019-02-22T20:36:28.066Z,3.10
2019-02-22T20:38:49.721Z,3.00
2019-02-22T20:41:16.801Z,3.00
2019-02-22T20:43:43.858Z,2.90
2019-02-22T20:46:10.942Z,2.90
2019-02-22T20:48:37.999Z,2.90
2019-02-22T20:51:05.119Z,2.90
2019-02-22T20:53:32.202Z,2.90
2019-02-22T20:55:59.340Z,2.80
2019-02-22T20:58:26.439Z,2.80
2019-02-22T21:00:53.639Z,2.70
2019-02-22T21:03:20.770Z,2.70
2019-02-22T21:05:47.886Z,2.70
2019-02-22T21:08:14.920Z,2.70
2019-02-22T21:10:42.220Z,2.70
2019-02-22T21:13:09.375Z,2.70
2019-02-22T21:15:36.520Z,2.70
2019-02-22T21:18:03.619Z,2.60
2019-02-22T21:20:30.740Z,2.60
2019-02-22T21:22:57.839Z,2.60
2019-02-22T21:25:24.939Z,2.50
2019-02-22T21:27:52.419Z,2.50
2019-02-22T21:30:20.385Z,2.40
2019-02-22T21:32:47.682Z,2.30
2019-02-22T21:35:14.860Z,2.30
2019-02-22T21:37:43.204Z,2.20
2019-02-22T21:40:11.619Z,2.20
2019-02-22T21:42:38.901Z,2.10
2019-02-22T21:45:14.206Z,2.10
2019-02-22T21:47:41.363Z,2.00
2019-02-22T21:50:14.220Z,1.90
2019-02-22T21:52:41.400Z,1.90
2019-02-22T21:55:13.449Z,1.80
2019-02-22T21:57:40.564Z,1.80
2019-02-22T22:00:20.340Z,1.80
2019-02-22T22:02:47.440Z,1.90
2019-02-22T22:05:14.841Z,1.90
2019-02-22T22:07:41.940Z,1.90
2019-02-22T22:10:09.018Z,1.90
2019-02-22T22:12:36.139Z,1.90
2019-02-22T22:15:10.671Z,1.90
2019-02-22T22:17:38.159Z,1.90
2019-02-22T22:20:07.683Z,1.90
2019-02-22T22:22:34.803Z,1.90
2019-02-22T22:25:03.598Z,1.90
2019-02-22T22:27:30.799Z,1.90
2019-02-22T22:29:57.880Z,1.80
2019-02-22T22:32:25.019Z,1.80
2019-02-22T22:34:52.159Z,1.80
2019-02-22T22:37:19.301Z,1.80
2019-02-22T22:39:46.360Z,1.60
2019-02-22T22:42:13.495Z,1.50
2019-02-22T22:44:40.581Z,1.50
2019-02-22T22:47:07.655Z,1.50
2019-02-22T22:49:34.837Z,1.50
2019-02-22T22:52:01.935Z,1.40
2019-02-22T22:54:29.135Z,1.40
2019-02-22T22:56:56.256Z,1.30
2019-02-22T22:59:23.475Z,1.30
2019-02-22T23:01:51.200Z,1.20
2019-02-22T23:04:18.378Z,1.10
2019-02-22T23:06:45.436Z,1.00
2019-02-22T23:09:17.436Z,0.90
2019-02-22T23:11:44.562Z,0.80
2019-02-22T23:14:11.642Z,0.80
2019-02-22T23:16:38.817Z,0.80
2019-02-22T23:19:06.058Z,0.70
2019-02-22T23:21:33.175Z,0.70
2019-02-22T23:24:00.316Z,0.70
2019-02-22T23:26:27.396Z,0.70
2019-02-22T23:28:54.475Z,0.70
2019-02-22T23:31:21.595Z,0.70
2019-02-22T23:33:48.696Z,0.70
2019-02-22T23:36:15.776Z,0.70
2019-02-22T23:38:42.936Z,0.70
2019-02-22T23:41:10.115Z,0.70
2019-02-22T23:43:37.195Z,0.70
2019-02-22T23:46:04.296Z,0.70
2019-02-22T23:48:31.496Z,0.70
2019-02-22T23:50:58.596Z,0.60
2019-02-22T23:53:25.696Z,0.60
2019-02-22T23:55:52.803Z,0.60
2019-02-22T23:58:19.935Z,0.60
